sensor_id;sensor_type;location;lat;lon;timestamp;pressure;altitude;pressure_sealevel;temperature;humidity
23229;BME280;11783;50.350;6.576;2024-02-16T00:01:34;95893.16;;;10.06;100.00
23229;BME280;11783;50.350;6.576;2024-02-16T00:04:01;95897.03;;;9.98;100.00
23229;BME280;11783;50.350;6.576;2024-02-16T00:06:26;95895.47;;;10.02;100.00
23229;BME280;11783;50.350;6.576;2024-02-16T00:08:52;95893.41;;;10.04;100.00
23229;BME280;11783;50.350;6.576;2024-02-16T00:11:17;95891.56;;;10.05;100.00
23229;BME280;11783;50.350;6.576;2024-02-16T00:13:43;95903.44;;;10.02;100.00
23229;BME280;11783;50.350;6.576;2024-02-16T00:16:08;95888.75;;;9.94;100.00
23229;BME280;11783;50.350;6.576;2024-02-16T00:18:34;95894.56;;;10.13;100.00
23229;BME280;11783;50.350;6.576;2024-02-16T00:21:00;95898.06;;;9.97;100.00
23229;BME280;11783;50.350;6.576;2024-02-16T00:23:26;95893.63;;;9.81;100.00
23229;BME280;11783;50.350;6.576;2024-02-16T00:25:52;95889.06;;;9.76;100.00
23229;BME280;11783;50.350;6.576;2024-02-16T00:28:18;95890.41;;;9.79;100.00
23229;BME280;11783;50.350;6.576;2024-02-16T00:30:43;95882.88;;;9.70;100.00
23229;BME280;11783;50.350;6.576;2024-02-16T00:33:09;95889.66;;;9.83;100.00
23229;BME280;11783;50.350;6.576;2024-02-16T00:35:34;95880.34;;;9.81;100.00
23229;BME280;11783;50.350;6.576;2024-02-16T00:38:00;95885.09;;;9.79;100.00
23229;BME280;11783;50.350;6.576;2024-02-16T00:40:25;95882.41;;;9.74;100.00
23229;BME280;11783;50.350;6.576;2024-02-16T00:42:51;95888.00;;;9.77;100.00
23229;BME280;11783;50.350;6.576;2024-02-16T00:45:17;95883.69;;;9.93;100.00
23229;BME280;11783;50.350;6.576;2024-02-16T00:47:42;95871.63;;;9.85;100.00
23229;BME280;11783;50.350;6.576;2024-02-16T00:50:10;95874.50;;;10.00;100.00
23229;BME280;11783;50.350;6.576;2024-02-16T00:52:36;95870.13;;;9.89;100.00
23229;BME280;11783;50.350;6.576;2024-02-16T00:55:03;95871.34;;;10.03;100.00
23229;BME280;11783;50.350;6.576;2024-02-16T00:57:29;95869.69;;;9.97;100.00
23229;BME280;11783;50.350;6.576;2024-02-16T00:59:54;95874.31;;;10.07;100.00
23229;BME280;11783;50.350;6.576;2024-02-16T01:02:20;95878.63;;;10.13;100.00
23229;BME280;11783;50.350;6.576;2024-02-16T01:04:46;95874.88;;;10.09;100.00
23229;BME280;11783;50.350;6.576;2024-02-16T01:07:12;95880.13;;;10.04;100.00
23229;BME280;11783;50.350;6.576;2024-02-16T01:09:37;95879.06;;;9.83;100.00
23229;BME280;11783;50.350;6.576;2024-02-16T01:12:03;95879.25;;;9.77;100.00
23229;BME280;11783;50.350;6.576;2024-02-16T01:14:28;95872.78;;;9.67;100.00
23229;BME280;11783;50.350;6.576;2024-02-16T01:16:53;95874.28;;;9.63;100.00
23229;BME280;11783;50.350;6.576;2024-02-16T01:19:19;95874.84;;;9.65;100.00
23229;BME280;11783;50.350;6.576;2024-02-16T01:21:44;95877.16;;;9.79;100.00
23229;BME280;11783;50.350;6.576;2024-02-16T01:24:12;95877.19;;;9.62;100.00
23229;BME280;11783;50.350;6.576;2024-02-16T01:26:38;95880.41;;;9.64;100.00
23229;BME280;11783;50.350;6.576;2024-02-16T01:29:04;95878.78;;;9.63;100.00
23229;BME280;11783;50.350;6.576;2024-02-16T01:31:29;95882.19;;;9.58;100.00
23229;BME280;11783;50.350;6.576;2024-02-16T01:33:54;95879.28;;;9.60;100.00
23229;BME280;11783;50.350;6.576;2024-02-16T01:36:20;95882.59;;;9.67;100.00
23229;BME280;11783;50.350;6.576;2024-02-16T01:38:45;95881.84;;;9.71;100.00
23229;BME280;11783;50.350;6.576;2024-02-16T01:41:11;95881.63;;;9.56;100.00
23229;BME280;11783;50.350;6.576;2024-02-16T01:43:37;95874.97;;;9.54;100.00
23229;BME280;11783;50.350;6.576;2024-02-16T01:46:03;95878.47;;;9.59;100.00
23229;BME280;11783;50.350;6.576;2024-02-16T01:48:29;95873.31;;;9.69;100.00
23229;BME280;11783;50.350;6.576;2024-02-16T01:50:55;95875.44;;;9.67;100.00
23229;BME280;11783;50.350;6.576;2024-02-16T01:53:22;95867.88;;;9.59;100.00
23229;BME280;11783;50.350;6.576;2024-02-16T01:55:47;95869.34;;;9.50;100.00
23229;BME280;11783;50.350;6.576;2024-02-16T01:58:13;95864.66;;;9.57;100.00
23229;BME280;11783;50.350;6.576;2024-02-16T02:00:39;95860.00;;;9.48;100.00
23229;BME280;11783;50.350;6.576;2024-02-16T02:03:06;95858.41;;;9.47;100.00
23229;BME280;11783;50.350;6.576;2024-02-16T02:05:32;95847.88;;;9.52;100.00
23229;BME280;11783;50.350;6.576;2024-02-16T02:07:58;95860.53;;;9.66;100.00
23229;BME280;11783;50.350;6.576;2024-02-16T02:10:23;95858.22;;;9.70;100.00
23229;BME280;11783;50.350;6.576;2024-02-16T02:12:49;95860.72;;;9.60;100.00
23229;BME280;11783;50.350;6.576;2024-02-16T02:15:14;95871.84;;;9.79;100.00
23229;BME280;11783;50.350;6.576;2024-02-16T02:17:40;95867.56;;;9.78;100.00
23229;BME280;11783;50.350;6.576;2024-02-16T02:20:06;95873.38;;;9.75;100.00
23229;BME280;11783;50.350;6.576;2024-02-16T02:22:37;95869.22;;;9.62;100.00
23229;BME280;11783;50.350;6.576;2024-02-16T02:25:03;95866.41;;;9.68;100.00
23229;BME280;11783;50.350;6.576;2024-02-16T02:27:29;95867.38;;;9.62;100.00
23229;BME280;11783;50.350;6.576;2024-02-16T02:29:54;95874.25;;;9.80;100.00
23229;BME280;11783;50.350;6.576;2024-02-16T02:32:19;95870.72;;;9.75;100.00
23229;BME280;11783;50.350;6.576;2024-02-16T02:34:45;95867.31;;;9.57;100.00
23229;BME280;11783;50.350;6.576;2024-02-16T02:37:10;95867.56;;;9.56;100.00
23229;BME280;11783;50.350;6.576;2024-02-16T02:39:35;95871.25;;;9.55;100.00
23229;BME280;11783;50.350;6.576;2024-02-16T02:42:01;95871.91;;;9.45;100.00
23229;BME280;11783;50.350;6.576;2024-02-16T02:44:26;95872.28;;;9.70;100.00
23229;BME280;11783;50.350;6.576;2024-02-16T02:46:52;95861.28;;;9.62;100.00
23229;BME280;11783;50.350;6.576;2024-02-16T02:49:18;95852.31;;;9.46;100.00
23229;BME280;11783;50.350;6.576;2024-02-16T02:51:44;95861.56;;;9.65;100.00
23229;BME280;11783;50.350;6.576;2024-02-16T02:54:09;95857.88;;;9.66;100.00
23229;BME280;11783;50.350;6.576;2024-02-16T02:56:35;95847.38;;;9.55;100.00
23229;BME280;11783;50.350;6.576;2024-02-16T02:59:00;95835.66;;;9.51;100.00
23229;BME280;11783;50.350;6.576;2024-02-16T03:01:26;95820.31;;;9.53;100.00
23229;BME280;11783;50.350;6.576;2024-02-16T03:03:51;95821.34;;;9.52;100.00
23229;BME280;11783;50.350;6.576;2024-02-16T03:06:20;95825.38;;;9.54;100.00
23229;BME280;11783;50.350;6.576;2024-02-16T03:08:45;95838.19;;;9.62;100.00
23229;BME280;11783;50.350;6.576;2024-02-16T03:11:11;95846.59;;;9.76;100.00
23229;BME280;11783;50.350;6.576;2024-02-16T03:13:37;95847.84;;;9.68;100.00
23229;BME280;11783;50.350;6.576;2024-02-16T03:16:03;95848.00;;;9.84;100.00
23229;BME280;11783;50.350;6.576;2024-02-16T03:18:32;95833.31;;;9.54;100.00
23229;BME280;11783;50.350;6.576;2024-02-16T03:20:58;95837.09;;;9.58;100.00
23229;BME280;11783;50.350;6.576;2024-02-16T03:23:24;95841.44;;;9.48;100.00
23229;BME280;11783;50.350;6.576;2024-02-16T03:25:49;95852.47;;;9.39;100.00
23229;BME280;11783;50.350;6.576;2024-02-16T03:28:15;95850.09;;;9.38;100.00
23229;BME280;11783;50.350;6.576;2024-02-16T03:30:41;95848.31;;;9.27;100.00
23229;BME280;11783;50.350;6.576;2024-02-16T03:33:06;95842.63;;;9.18;100.00
23229;BME280;11783;50.350;6.576;2024-02-16T03:35:32;95842.22;;;9.09;100.00
23229;BME280;11783;50.350;6.576;2024-02-16T03:37:57;95840.50;;;8.98;100.00
23229;BME280;11783;50.350;6.576;2024-02-16T03:40:24;95839.94;;;8.96;100.00
23229;BME280;11783;50.350;6.576;2024-02-16T03:42:50;95836.47;;;8.96;100.00
23229;BME280;11783;50.350;6.576;2024-02-16T03:45:16;95840.31;;;9.05;100.00
23229;BME280;11783;50.350;6.576;2024-02-16T03:47:41;95841.78;;;8.96;100.00
23229;BME280;11783;50.350;6.576;2024-02-16T03:50:07;95847.22;;;8.89;100.00
23229;BME280;11783;50.350;6.576;2024-02-16T03:52:33;95845.94;;;8.92;100.00
23229;BME280;11783;50.350;6.576;2024-02-16T03:54:58;95847.41;;;8.83;100.00
23229;BME280;11783;50.350;6.576;2024-02-16T03:57:24;95854.47;;;8.94;100.00
23229;BME280;11783;50.350;6.576;2024-02-16T03:59:50;95853.81;;;9.03;100.00
23229;BME280;11783;50.350;6.576;2024-02-16T04:02:16;95855.41;;;9.04;100.00
23229;BME280;11783;50.350;6.576;2024-02-16T04:04:41;95851.72;;;9.05;100.00
23229;BME280;11783;50.350;6.576;2024-02-16T04:07:07;95854.00;;;8.97;100.00
23229;BME280;11783;50.350;6.576;2024-02-16T04:09:33;95861.22;;;9.01;100.00
23229;BME280;11783;50.350;6.576;2024-02-16T04:12:00;95861.22;;;9.01;100.00
23229;BME280;11783;50.350;6.576;2024-02-16T04:14:25;95871.88;;;8.90;100.00
23229;BME280;11783;50.350;6.576;2024-02-16T04:16:51;95869.09;;;8.79;100.00
23229;BME280;11783;50.350;6.576;2024-02-16T04:19:17;95869.88;;;8.63;100.00
23229;BME280;11783;50.350;6.576;2024-02-16T04:21:42;95865.38;;;8.64;100.00
23229;BME280;11783;50.350;6.576;2024-02-16T04:24:07;95869.00;;;8.74;100.00
23229;BME280;11783;50.350;6.576;2024-02-16T04:26:33;95866.13;;;8.76;100.00
23229;BME280;11783;50.350;6.576;2024-02-16T04:28:58;95872.69;;;8.57;100.00
23229;BME280;11783;50.350;6.576;2024-02-16T04:31:24;95865.28;;;8.59;100.00
23229;BME280;11783;50.350;6.576;2024-02-16T04:33:49;95871.38;;;8.59;100.00
23229;BME280;11783;50.350;6.576;2024-02-16T04:36:15;95871.88;;;8.56;100.00
23229;BME280;11783;50.350;6.576;2024-02-16T04:38:41;95880.50;;;8.52;100.00
23229;BME280;11783;50.350;6.576;2024-02-16T04:41:06;95866.44;;;8.34;100.00
23229;BME280;11783;50.350;6.576;2024-02-16T04:43:33;95872.81;;;8.50;100.00
23229;BME280;11783;50.350;6.576;2024-02-16T04:45:58;95871.94;;;8.44;100.00
23229;BME280;11783;50.350;6.576;2024-02-16T04:48:25;95877.72;;;8.30;100.00
23229;BME280;11783;50.350;6.576;2024-02-16T04:50:50;95882.75;;;8.31;100.00
23229;BME280;11783;50.350;6.576;2024-02-16T04:53:16;95876.66;;;8.31;100.00
23229;BME280;11783;50.350;6.576;2024-02-16T04:55:42;95875.78;;;8.25;100.00
23229;BME280;11783;50.350;6.576;2024-02-16T04:58:07;95878.44;;;8.25;100.00
23229;BME280;11783;50.350;6.576;2024-02-16T05:00:37;95878.91;;;8.22;100.00
23229;BME280;11783;50.350;6.576;2024-02-16T05:03:03;95876.00;;;8.24;100.00
23229;BME280;11783;50.350;6.576;2024-02-16T05:05:28;95875.53;;;8.38;100.00
23229;BME280;11783;50.350;6.576;2024-02-16T05:07:53;95881.72;;;8.32;100.00
23229;BME280;11783;50.350;6.576;2024-02-16T05:10:19;95879.06;;;8.32;100.00
23229;BME280;11783;50.350;6.576;2024-02-16T05:12:45;95875.63;;;8.43;100.00
23229;BME280;11783;50.350;6.576;2024-02-16T05:15:11;95867.00;;;8.36;100.00
23229;BME280;11783;50.350;6.576;2024-02-16T05:17:39;95871.59;;;8.41;100.00
23229;BME280;11783;50.350;6.576;2024-02-16T05:20:11;95869.19;;;8.28;100.00
23229;BME280;11783;50.350;6.576;2024-02-16T05:22:41;95870.47;;;8.25;100.00
23229;BME280;11783;50.350;6.576;2024-02-16T05:25:09;95865.75;;;8.27;100.00
23229;BME280;11783;50.350;6.576;2024-02-16T05:27:35;95861.59;;;8.31;100.00
23229;BME280;11783;50.350;6.576;2024-02-16T05:30:00;95867.34;;;8.28;100.00
23229;BME280;11783;50.350;6.576;2024-02-16T05:32:25;95868.00;;;8.18;100.00
23229;BME280;11783;50.350;6.576;2024-02-16T05:34:51;95864.09;;;8.09;100.00
23229;BME280;11783;50.350;6.576;2024-02-16T05:37:17;95864.09;;;8.09;100.00
23229;BME280;11783;50.350;6.576;2024-02-16T05:39:43;95864.97;;;8.15;100.00
23229;BME280;11783;50.350;6.576;2024-02-16T05:42:20;95868.44;;;8.15;100.00
23229;BME280;11783;50.350;6.576;2024-02-16T05:44:47;95862.91;;;8.17;100.00
23229;BME280;11783;50.350;6.576;2024-02-16T05:47:13;95870.97;;;8.22;100.00
23229;BME280;11783;50.350;6.576;2024-02-16T05:49:39;95876.59;;;8.26;100.00
23229;BME280;11783;50.350;6.576;2024-02-16T05:52:05;95870.28;;;8.15;100.00
23229;BME280;11783;50.350;6.576;2024-02-16T05:54:44;95866.34;;;8.17;100.00
23229;BME280;11783;50.350;6.576;2024-02-16T05:57:09;95861.13;;;8.06;100.00
23229;BME280;11783;50.350;6.576;2024-02-16T05:59:35;95868.44;;;8.15;100.00
23229;BME280;11783;50.350;6.576;2024-02-16T06:02:00;95863.50;;;8.19;100.00
23229;BME280;11783;50.350;6.576;2024-02-16T06:04:26;95866.81;;;8.14;100.00
23229;BME280;11783;50.350;6.576;2024-02-16T06:06:51;95873.28;;;8.18;100.00
23229;BME280;11783;50.350;6.576;2024-02-16T06:09:19;95868.25;;;8.05;100.00
23229;BME280;11783;50.350;6.576;2024-02-16T06:11:44;95865.63;;;7.94;100.00
23229;BME280;11783;50.350;6.576;2024-02-16T06:14:09;95859.94;;;7.85;100.00
23229;BME280;11783;50.350;6.576;2024-02-16T06:16:35;95863.94;;;7.87;100.00
23229;BME280;11783;50.350;6.576;2024-02-16T06:19:00;95864.75;;;7.88;100.00
23229;BME280;11783;50.350;6.576;2024-02-16T06:21:26;95880.78;;;8.10;100.00
23229;BME280;11783;50.350;6.576;2024-02-16T06:23:51;95878.13;;;8.10;100.00
23229;BME280;11783;50.350;6.576;2024-02-16T06:26:16;95874.25;;;8.01;100.00
23229;BME280;11783;50.350;6.576;2024-02-16T06:28:42;95880.00;;;7.98;100.00
23229;BME280;11783;50.350;6.576;2024-02-16T06:31:07;95881.59;;;7.99;100.00
23229;BME280;11783;50.350;6.576;2024-02-16T06:33:32;95882.53;;;8.04;100.00
23229;BME280;11783;50.350;6.576;2024-02-16T06:35:58;95887.50;;;8.01;100.00
23229;BME280;11783;50.350;6.576;2024-02-16T06:38:23;95890.34;;;7.99;100.00
23229;BME280;11783;50.350;6.576;2024-02-16T06:40:49;95896.25;;;8.01;100.00
23229;BME280;11783;50.350;6.576;2024-02-16T06:43:14;95889.53;;;7.99;100.00
23229;BME280;11783;50.350;6.576;2024-02-16T06:45:40;95885.66;;;7.89;100.00
23229;BME280;11783;50.350;6.576;2024-02-16T06:48:05;95893.81;;;8.00;100.00
23229;BME280;11783;50.350;6.576;2024-02-16T06:50:31;95899.41;;;8.15;100.00
23229;BME280;11783;50.350;6.576;2024-02-16T06:52:56;95899.78;;;8.07;100.00
23229;BME280;11783;50.350;6.576;2024-02-16T06:55:22;95909.91;;;7.98;100.00
23229;BME280;11783;50.350;6.576;2024-02-16T06:57:47;95905.06;;;8.07;100.00
23229;BME280;11783;50.350;6.576;2024-02-16T07:00:13;95917.56;;;8.23;100.00
23229;BME280;11783;50.350;6.576;2024-02-16T07:02:40;95901.53;;;8.01;100.00
23229;BME280;11783;50.350;6.576;2024-02-16T07:05:07;95909.31;;;8.19;100.00
23229;BME280;11783;50.350;6.576;2024-02-16T07:07:33;95905.22;;;8.29;100.00
23229;BME280;11783;50.350;6.576;2024-02-16T07:10:01;95909.59;;;8.35;100.00
23229;BME280;11783;50.350;6.576;2024-02-16T07:12:26;95917.41;;;8.41;100.00
23229;BME280;11783;50.350;6.576;2024-02-16T07:14:52;95921.81;;;8.64;100.00
23229;BME280;11783;50.350;6.576;2024-02-16T07:17:17;95930.84;;;8.52;100.00
23229;BME280;11783;50.350;6.576;2024-02-16T07:19:43;95935.81;;;8.76;100.00
23229;BME280;11783;50.350;6.576;2024-02-16T07:22:08;95939.31;;;8.65;100.00
23229;BME280;11783;50.350;6.576;2024-02-16T07:24:35;95933.41;;;8.75;100.00
23229;BME280;11783;50.350;6.576;2024-02-16T07:27:00;95950.69;;;8.94;100.00
23229;BME280;11783;50.350;6.576;2024-02-16T07:29:27;95948.75;;;9.06;100.00
23229;BME280;11783;50.350;6.576;2024-02-16T07:31:53;95950.03;;;9.04;100.00
23229;BME280;11783;50.350;6.576;2024-02-16T07:34:19;95947.56;;;9.14;100.00
23229;BME280;11783;50.350;6.576;2024-02-16T07:36:45;95942.34;;;9.19;100.00
23229;BME280;11783;50.350;6.576;2024-02-16T07:39:10;95944.81;;;9.26;100.00
23229;BME280;11783;50.350;6.576;2024-02-16T07:41:37;95945.00;;;9.36;100.00
23229;BME280;11783;50.350;6.576;2024-02-16T07:44:04;95945.22;;;9.51;100.00
23229;BME280;11783;50.350;6.576;2024-02-16T07:46:29;95945.31;;;9.39;100.00
23229;BME280;11783;50.350;6.576;2024-02-16T07:48:54;95958.06;;;9.59;100.00
23229;BME280;11783;50.350;6.576;2024-02-16T07:51:20;95954.69;;;9.64;100.00
23229;BME280;11783;50.350;6.576;2024-02-16T07:53:45;95949.44;;;9.86;100.00
23229;BME280;11783;50.350;6.576;2024-02-16T07:56:12;95963.38;;;9.76;100.00
23229;BME280;11783;50.350;6.576;2024-02-16T07:58:37;95958.53;;;9.90;100.00
23229;BME280;11783;50.350;6.576;2024-02-16T08:01:03;95966.28;;;9.96;100.00
23229;BME280;11783;50.350;6.576;2024-02-16T08:03:28;95960.16;;;10.13;100.00
23229;BME280;11783;50.350;6.576;2024-02-16T08:05:55;95962.34;;;9.99;100.00
23229;BME280;11783;50.350;6.576;2024-02-16T08:08:22;95962.59;;;10.19;100.00
23229;BME280;11783;50.350;6.576;2024-02-16T08:10:48;95965.25;;;10.19;100.00
23229;BME280;11783;50.350;6.576;2024-02-16T08:13:13;95964.38;;;10.30;100.00
23229;BME280;11783;50.350;6.576;2024-02-16T08:15:39;95974.00;;;10.37;100.00
23229;BME280;11783;50.350;6.576;2024-02-16T08:18:05;95977.09;;;10.28;100.00
23229;BME280;11783;50.350;6.576;2024-02-16T08:20:31;95987.72;;;10.50;100.00
23229;BME280;11783;50.350;6.576;2024-02-16T08:22:56;95986.94;;;10.50;100.00
23229;BME280;11783;50.350;6.576;2024-02-16T08:25:22;95987.06;;;10.60;100.00
23229;BME280;11783;50.350;6.576;2024-02-16T08:27:48;95992.34;;;10.38;100.00
23229;BME280;11783;50.350;6.576;2024-02-16T08:30:14;95997.75;;;10.43;100.00
23229;BME280;11783;50.350;6.576;2024-02-16T08:32:40;96001.00;;;10.50;100.00
23229;BME280;11783;50.350;6.576;2024-02-16T08:35:05;95996.00;;;10.54;100.00
23229;BME280;11783;50.350;6.576;2024-02-16T08:37:31;95997.06;;;10.53;100.00
23229;BME280;11783;50.350;6.576;2024-02-16T08:39:57;96000.50;;;10.75;100.00
23229;BME280;11783;50.350;6.576;2024-02-16T08:42:23;96007.25;;;10.61;100.00
23229;BME280;11783;50.350;6.576;2024-02-16T08:44:49;96007.06;;;10.68;100.00
23229;BME280;11783;50.350;6.576;2024-02-16T08:47:15;96026.16;;;10.86;100.00
23229;BME280;11783;50.350;6.576;2024-02-16T08:49:41;96023.03;;;10.95;100.00
23229;BME280;11783;50.350;6.576;2024-02-16T08:52:08;96015.22;;;11.10;100.00
23229;BME280;11783;50.350;6.576;2024-02-16T08:54:33;96023.44;;;11.08;100.00
23229;BME280;11783;50.350;6.576;2024-02-16T08:56:59;96010.41;;;11.07;100.00
23229;BME280;11783;50.350;6.576;2024-02-16T08:59:25;96020.91;;;11.18;100.00
23229;BME280;11783;50.350;6.576;2024-02-16T09:01:52;96025.34;;;11.13;100.00
23229;BME280;11783;50.350;6.576;2024-02-16T09:04:17;96021.69;;;11.19;100.00
23229;BME280;11783;50.350;6.576;2024-02-16T09:06:43;96025.34;;;11.13;100.00
23229;BME280;11783;50.350;6.576;2024-02-16T09:09:08;96033.66;;;10.95;100.00
23229;BME280;11783;50.350;6.576;2024-02-16T09:11:34;96035.97;;;11.13;100.00
23229;BME280;11783;50.350;6.576;2024-02-16T09:14:00;96034.47;;;10.95;100.00
23229;BME280;11783;50.350;6.576;2024-02-16T09:16:27;96041.81;;;10.83;100.00
23229;BME280;11783;50.350;6.576;2024-02-16T09:18:52;96048.56;;;10.96;100.00
23229;BME280;11783;50.350;6.576;2024-02-16T09:21:17;96058.78;;;11.04;100.00
23229;BME280;11783;50.350;6.576;2024-02-16T09:23:43;96052.78;;;10.91;100.00
23229;BME280;11783;50.350;6.576;2024-02-16T09:26:08;96062.31;;;11.14;100.00
23229;BME280;11783;50.350;6.576;2024-02-16T09:28:40;96045.78;;;11.07;100.00
23229;BME280;11783;50.350;6.576;2024-02-16T09:31:09;96064.78;;;10.94;100.00
23229;BME280;11783;50.350;6.576;2024-02-16T09:33:35;96075.78;;;11.03;100.00
23229;BME280;11783;50.350;6.576;2024-02-16T09:36:00;96071.69;;;10.95;100.00
23229;BME280;11783;50.350;6.576;2024-02-16T09:38:27;96071.31;;;11.08;100.00
23229;BME280;11783;50.350;6.576;2024-02-16T09:40:53;96059.28;;;11.01;100.00
23229;BME280;11783;50.350;6.576;2024-02-16T09:43:26;96069.41;;;11.31;100.00
23229;BME280;11783;50.350;6.576;2024-02-16T09:45:56;96074.31;;;11.39;100.00
23229;BME280;11783;50.350;6.576;2024-02-16T09:48:22;96088.50;;;11.49;100.00
23229;BME280;11783;50.350;6.576;2024-02-16T09:50:53;96079.78;;;11.54;100.00
23229;BME280;11783;50.350;6.576;2024-02-16T09:53:19;96081.78;;;11.42;100.00
23229;BME280;11783;50.350;6.576;2024-02-16T09:55:48;96074.78;;;11.63;100.00
23229;BME280;11783;50.350;6.576;2024-02-16T09:58:14;96075.25;;;11.55;100.00
23229;BME280;11783;50.350;6.576;2024-02-16T10:00:51;96085.53;;;11.46;100.00
23229;BME280;11783;50.350;6.576;2024-02-16T10:03:23;96086.44;;;11.57;100.00
23229;BME280;11783;50.350;6.576;2024-02-16T10:05:50;96102.06;;;11.75;100.00
23229;BME280;11783;50.350;6.576;2024-02-16T10:08:16;96089.91;;;11.84;100.00
23229;BME280;11783;50.350;6.576;2024-02-16T10:10:42;96109.09;;;11.86;100.00
23229;BME280;11783;50.350;6.576;2024-02-16T10:13:08;96111.72;;;11.81;100.00
23229;BME280;11783;50.350;6.576;2024-02-16T10:15:34;96111.44;;;11.82;100.00
23229;BME280;11783;50.350;6.576;2024-02-16T10:18:04;96109.09;;;11.86;100.00
23229;BME280;11783;50.350;6.576;2024-02-16T10:20:31;96119.09;;;11.74;100.00
23229;BME280;11783;50.350;6.576;2024-02-16T10:23:04;96119.47;;;11.61;100.00
23229;BME280;11783;50.350;6.576;2024-02-16T10:25:30;96115.47;;;11.85;100.00
23229;BME280;11783;50.350;6.576;2024-02-16T10:27:57;96117.03;;;11.81;100.00
23229;BME280;11783;50.350;6.576;2024-02-16T10:30:29;96127.69;;;11.81;100.00
23229;BME280;11783;50.350;6.576;2024-02-16T10:32:54;96129.19;;;11.72;100.00
23229;BME280;11783;50.350;6.576;2024-02-16T10:35:21;96130.91;;;11.83;100.00
23229;BME280;11783;50.350;6.576;2024-02-16T10:37:47;96140.13;;;11.75;100.00
23229;BME280;11783;50.350;6.576;2024-02-16T10:40:13;96133.31;;;11.85;100.00
23229;BME280;11783;50.350;6.576;2024-02-16T10:42:40;96141.44;;;12.00;100.00
23229;BME280;11783;50.350;6.576;2024-02-16T10:45:07;96129.75;;;12.06;100.00
23229;BME280;11783;50.350;6.576;2024-02-16T10:47:33;96131.22;;;12.24;100.00
23229;BME280;11783;50.350;6.576;2024-02-16T10:49:59;96134.00;;;12.02;100.00
23229;BME280;11783;50.350;6.576;2024-02-16T10:52:25;96131.72;;;12.16;100.00
23229;BME280;11783;50.350;6.576;2024-02-16T10:54:51;96127.09;;;12.06;100.00
23229;BME280;11783;50.350;6.576;2024-02-16T10:57:16;96135.34;;;12.04;100.00
23229;BME280;11783;50.350;6.576;2024-02-16T10:59:44;96138.22;;;12.30;100.00
23229;BME280;11783;50.350;6.576;2024-02-16T11:02:10;96137.63;;;12.23;100.00
23229;BME280;11783;50.350;6.576;2024-02-16T11:04:37;96138.28;;;12.45;100.00
23229;BME280;11783;50.350;6.576;2024-02-16T11:07:18;96142.88;;;12.50;100.00
23229;BME280;11783;50.350;6.576;2024-02-16T11:09:45;96142.38;;;12.58;100.00
23229;BME280;11783;50.350;6.576;2024-02-16T11:12:13;96141.97;;;12.76;100.00
23229;BME280;11783;50.350;6.576;2024-02-16T11:14:41;96145.94;;;12.73;100.00
23229;BME280;11783;50.350;6.576;2024-02-16T11:17:12;96136.44;;;12.88;100.00
23229;BME280;11783;50.350;6.576;2024-02-16T11:19:40;96140.47;;;13.00;100.00
23229;BME280;11783;50.350;6.576;2024-02-16T11:22:06;96137.59;;;13.17;100.00
23229;BME280;11783;50.350;6.576;2024-02-16T11:24:36;96126.94;;;13.12;100.00
23229;BME280;11783;50.350;6.576;2024-02-16T11:27:05;96132.72;;;12.94;100.00
23229;BME280;11783;50.350;6.576;2024-02-16T11:29:32;96137.84;;;13.11;100.00
23229;BME280;11783;50.350;6.576;2024-02-16T11:32:00;96136.31;;;13.20;100.00
23229;BME280;11783;50.350;6.576;2024-02-16T11:34:26;96147.63;;;12.85;100.00
23229;BME280;11783;50.350;6.576;2024-02-16T11:36:55;96156.28;;;13.12;100.00
23229;BME280;11783;50.350;6.576;2024-02-16T11:39:21;96156.53;;;13.11;100.00
23229;BME280;11783;50.350;6.576;2024-02-16T11:41:47;96151.78;;;12.65;100.00
23229;BME280;11783;50.350;6.576;2024-02-16T11:44:13;96158.75;;;12.71;100.00
23229;BME280;11783;50.350;6.576;2024-02-16T11:46:42;96155.50;;;12.64;100.00
23229;BME280;11783;50.350;6.576;2024-02-16T11:49:08;96158.03;;;12.86;100.00
23229;BME280;11783;50.350;6.576;2024-02-16T11:51:34;96159.78;;;12.65;100.00
23229;BME280;11783;50.350;6.576;2024-02-16T11:53:59;96154.25;;;12.82;100.00
23229;BME280;11783;50.350;6.576;2024-02-16T11:56:25;96162.03;;;12.84;100.00
23229;BME280;11783;50.350;6.576;2024-02-16T11:58:52;96170.34;;;12.50;100.00
23229;BME280;11783;50.350;6.576;2024-02-16T12:01:18;96173.19;;;12.38;100.00
23229;BME280;11783;50.350;6.576;2024-02-16T12:03:43;96179.31;;;12.39;100.00
23229;BME280;11783;50.350;6.576;2024-02-16T12:06:08;96161.84;;;12.58;100.00
23229;BME280;11783;50.350;6.576;2024-02-16T12:08:35;96164.88;;;12.35;100.00
23229;BME280;11783;50.350;6.576;2024-02-16T12:11:01;96181.03;;;12.55;100.00
23229;BME280;11783;50.350;6.576;2024-02-16T12:13:27;96171.69;;;12.53;100.00
23229;BME280;11783;50.350;6.576;2024-02-16T12:15:53;96174.41;;;12.63;100.00
23229;BME280;11783;50.350;6.576;2024-02-16T12:18:25;96166.97;;;12.65;100.00
23229;BME280;11783;50.350;6.576;2024-02-16T12:21:01;96177.72;;;12.43;100.00
23229;BME280;11783;50.350;6.576;2024-02-16T12:23:27;96183.50;;;12.30;100.00
23229;BME280;11783;50.350;6.576;2024-02-16T12:25:53;96175.13;;;12.48;100.00
23229;BME280;11783;50.350;6.576;2024-02-16T12:28:19;96181.03;;;12.55;100.00
23229;BME280;11783;50.350;6.576;2024-02-16T12:30:47;96179.44;;;12.59;100.00
23229;BME280;11783;50.350;6.576;2024-02-16T12:33:13;96189.38;;;12.32;100.00
23229;BME280;11783;50.350;6.576;2024-02-16T12:35:39;96190.44;;;12.31;100.00
23229;BME280;11783;50.350;6.576;2024-02-16T12:38:04;96191.25;;;12.31;100.00
23229;BME280;11783;50.350;6.576;2024-02-16T12:40:29;96204.38;;;12.43;100.00
23229;BME280;11783;50.350;6.576;2024-02-16T12:42:55;96192.19;;;12.47;100.00
23229;BME280;11783;50.350;6.576;2024-02-16T12:45:20;96197.44;;;12.42;100.00
23229;BME280;11783;50.350;6.576;2024-02-16T12:47:46;96204.69;;;12.15;100.00
23229;BME280;11783;50.350;6.576;2024-02-16T12:50:12;96203.53;;;12.32;100.00